Ferry Kyoto2 — JI3701 — position and weather

sailwx.info

Track history (hours):
 
Tides and Currents Weather Stations Pressure Air Temp Water Temp Dewpoint Dewpoint Depression Visibility Wind Speed Wind Dir Waves Ship Positions

Ferry Kyoto2

Last reported at 2014-Sep-02 18:32 UTC. Time now 2014-Sep-02 21:16 UTC.
Position N 33°57' E 132°41'.

Length 167 m; draft 6 m.

Type: Passenger vessel. MMSI: 431301641.

Date/timePositionNaut miles runAvg speedWind from/ knotsBaromVisibWave heightAir tempDewpointWater temp
2014-Sep-02 18:32N 33°57' E 132°41'11118.6
2014-Sep-02 12:33N 34°34' E 134°48'2019.9
2014-Sep-02 11:34N 34°37' E 135°12'11 9.7
2014-Sep-02 10:22N 34°37' E 135°26'0 0.0
2014-Sep-02 09:28N 34°37' E 135°26'0 0.0
2014-Sep-02 08:16N 34°37' E 135°26'0 0.0
2014-Sep-02 07:28N 34°37' E 135°26'0 0.0
2014-Sep-02 06:28N 34°37' E 135°26'0 0.0
2014-Sep-02 05:28N 34°37' E 135°26'0 0.0
2014-Sep-02 04:16N 34°37' E 135°26'0 0.0
2014-Sep-02 03:28N 34°37' E 135°26'0 0.0
2014-Sep-02 02:28N 34°37' E 135°26'0 0.0
2014-Sep-02 01:22N 34°37' E 135°26'0 0.0
2014-Sep-02 00:28N 34°37' E 135°26'0 0.0
2014-Sep-01 23:29N 34°37' E 135°26'9 9.8
2014-Sep-01 22:33N 34°35' E 135°15'1717.2
2014-Sep-01 21:33N 34°35' E 134°54'11018.4
2014-Sep-01 15:33N 34°02' E 132°47'2322.5
2014-Sep-01 14:32N 33°47' E 132°27'16 0.8
2014-Aug-31 18:27N 33°57' E 132°41'11018.6
2014-Aug-31 12:32N 34°33' E 134°47'2121.2
2014-Aug-31 11:33N 34°36' E 135°12'1210.8
2014-Aug-31 10:29N 34°37' E 135°26'0 0.0
2014-Aug-31 09:23N 34°37' E 135°26'0 0.0
2014-Aug-31 08:29N 34°37' E 135°26'0 0.0
2014-Aug-31 07:29N 34°37' E 135°26'0 0.0
2014-Aug-31 06:29N 34°37' E 135°26'0 0.0
2014-Aug-31 05:29N 34°37' E 135°26'0 0.0
2014-Aug-31 04:23N 34°37' E 135°26'0 0.0
2014-Aug-31 03:29N 34°37' E 135°26'0 0.0
2014-Aug-31 02:29N 34°37' E 135°26'0 0.0
2014-Aug-31 01:23N 34°37' E 135°26'0 0.0
2014-Aug-31 00:29N 34°37' E 135°26'0 0.0
2014-Aug-30 23:33N 34°37' E 135°26'10 9.7
2014-Aug-30 22:33N 34°35' E 135°14'1817.5
2014-Aug-30 21:33N 34°35' E 134°53'10918.2
2014-Aug-30 15:33N 34°02' E 132°47'2422.8
2014-Aug-30 14:30N 33°46' E 132°25'17 0.9
2014-Aug-29 18:33N 33°57' E 132°41'11118.4
2014-Aug-29 12:30N 34°34' E 134°48'2121.8
2014-Aug-29 11:33N 34°36' E 135°13'11 9.6
2014-Aug-29 10:28N 34°37' E 135°26'0 0.0
2014-Aug-29 09:28N 34°37' E 135°26'0 0.0
2014-Aug-29 08:28N 34°37' E 135°26'0 0.0
2014-Aug-29 07:28N 34°37' E 135°26'0 0.0
2014-Aug-29 06:28N 34°37' E 135°26'0 0.0
2014-Aug-29 05:28N 34°37' E 135°26'0 0.0
2014-Aug-29 04:28N 34°37' E 135°26'0 0.0
2014-Aug-29 03:28N 34°37' E 135°26'0 0.0
2014-Aug-29 02:28N 34°37' E 135°26'0 0.0
2014-Aug-29 01:28N 34°37' E 135°26'0 0.0
2014-Aug-29 00:28N 34°37' E 135°26'0 0.0
2014-Aug-28 23:32N 34°37' E 135°26'1010.4
2014-Aug-28 22:33N 34°35' E 135°14'1918.7
2014-Aug-28 21:33N 34°34' E 134°51'9618.8
2014-Aug-28 16:25N 34°07' E 132°59'1415.6
2014-Aug-28 15:33N 33°60' E 132°45'2221.1
2014-Aug-28 14:31N 33°46' E 132°25'127 4.9
2014-Aug-27 12:31N 34°33' E 134°47'2122.6
2014-Aug-27 11:33N 34°36' E 135°13'1010.1
2014-Aug-27 10:31N 34°37' E 135°26'0 0.0
2014-Aug-27 09:31N 34°37' E 135°26'0 0.0
2014-Aug-27 08:19N 34°37' E 135°26'0 0.0
2014-Aug-27 07:25N 34°37' E 135°26'0 0.0
2014-Aug-27 06:31N 34°37' E 135°26'0 0.0
2014-Aug-27 05:25N 34°37' E 135°26'0 0.0
2014-Aug-27 04:19N 34°37' E 135°26'0 0.0
2014-Aug-27 03:25N 34°37' E 135°26'0 0.0
2014-Aug-27 02:25N 34°37' E 135°26'0 0.0
2014-Aug-27 01:31N 34°37' E 135°26'0 0.0
2014-Aug-27 00:28N 34°37' E 135°26'0 0.0
2014-Aug-26 23:32N 34°37' E 135°26'9 9.3
2014-Aug-26 22:33N 34°36' E 135°15'1817.5
2014-Aug-26 21:33N 34°35' E 134°54'116 4.3
2014-Aug-25 18:22N 33°57' E 132°41'11118.9
2014-Aug-25 12:29N 34°33' E 134°48'2122.6
2014-Aug-25 11:33N 34°36' E 135°13'11 9.7
2014-Aug-25 10:28N 34°37' E 135°26'0 0.0
2014-Aug-25 09:28N 34°37' E 135°26'0 0.0
2014-Aug-25 08:28N 34°37' E 135°26'0 0.0
2014-Aug-25 07:28N 34°37' E 135°26'0 0.0
2014-Aug-25 06:28N 34°37' E 135°26'0 0.0
2014-Aug-25 05:28N 34°37' E 135°26'0 0.0
2014-Aug-25 04:22N 34°37' E 135°26'0 0.0
2014-Aug-25 03:28N 34°37' E 135°26'0 0.0
2014-Aug-25 02:28N 34°37' E 135°26'0 0.0
2014-Aug-25 01:28N 34°37' E 135°26'0 0.0
2014-Aug-25 00:33N 34°37' E 135°26'0 0.0
2014-Aug-24 23:33N 34°37' E 135°26'1010.1
2014-Aug-24 22:34N 34°35' E 135°14'1717.2
2014-Aug-24 21:33N 34°35' E 134°53'10817.9
2014-Aug-24 15:32N 34°03' E 132°48'2221.8
2014-Aug-24 14:32N 33°48' E 132°29'  
Track history (hours):
 
Tides and Currents Weather Stations Pressure Air Temp Water Temp Dewpoint Dewpoint Depression Visibility Wind Speed Wind Dir Waves Ship Positions

Ferry Kyoto2

Last reported at 2014-Sep-02 18:32 UTC. Time now 2014-Sep-02 21:16 UTC.
Position N 33°57' E 132°41'.

Length 167 m; draft 6 m.

Type: Passenger vessel. MMSI: 431301641.

Date/timePositionNaut miles runAvg speedWind from/ knotsBaromVisibWave heightAir tempDewpointWater temp
2014-Sep-02 18:32N 33°57' E 132°41'11118.6
2014-Sep-02 12:33N 34°34' E 134°48'2019.9
2014-Sep-02 11:34N 34°37' E 135°12'11 9.7
2014-Sep-02 10:22N 34°37' E 135°26'0 0.0
2014-Sep-02 09:28N 34°37' E 135°26'0 0.0
2014-Sep-02 08:16N 34°37' E 135°26'0 0.0
2014-Sep-02 07:28N 34°37' E 135°26'0 0.0
2014-Sep-02 06:28N 34°37' E 135°26'0 0.0
2014-Sep-02 05:28N 34°37' E 135°26'0 0.0
2014-Sep-02 04:16N 34°37' E 135°26'0 0.0
2014-Sep-02 03:28N 34°37' E 135°26'0 0.0
2014-Sep-02 02:28N 34°37' E 135°26'0 0.0
2014-Sep-02 01:22N 34°37' E 135°26'0 0.0
2014-Sep-02 00:28N 34°37' E 135°26'0 0.0
2014-Sep-01 23:29N 34°37' E 135°26'9 9.8
2014-Sep-01 22:33N 34°35' E 135°15'1717.2
2014-Sep-01 21:33N 34°35' E 134°54'11018.4
2014-Sep-01 15:33N 34°02' E 132°47'2322.5
2014-Sep-01 14:32N 33°47' E 132°27'16 0.8
2014-Aug-31 18:27N 33°57' E 132°41'11018.6
2014-Aug-31 12:32N 34°33' E 134°47'2121.2
2014-Aug-31 11:33N 34°36' E 135°12'1210.8
2014-Aug-31 10:29N 34°37' E 135°26'0 0.0
2014-Aug-31 09:23N 34°37' E 135°26'0 0.0
2014-Aug-31 08:29N 34°37' E 135°26'0 0.0
2014-Aug-31 07:29N 34°37' E 135°26'0 0.0
2014-Aug-31 06:29N 34°37' E 135°26'0 0.0
2014-Aug-31 05:29N 34°37' E 135°26'0 0.0
2014-Aug-31 04:23N 34°37' E 135°26'0 0.0
2014-Aug-31 03:29N 34°37' E 135°26'0 0.0
2014-Aug-31 02:29N 34°37' E 135°26'0 0.0
2014-Aug-31 01:23N 34°37' E 135°26'0 0.0
2014-Aug-31 00:29N 34°37' E 135°26'0 0.0
2014-Aug-30 23:33N 34°37' E 135°26'10 9.7
2014-Aug-30 22:33N 34°35' E 135°14'1817.5
2014-Aug-30 21:33N 34°35' E 134°53'10918.2
2014-Aug-30 15:33N 34°02' E 132°47'2422.8
2014-Aug-30 14:30N 33°46' E 132°25'17 0.9
2014-Aug-29 18:33N 33°57' E 132°41'11118.4
2014-Aug-29 12:30N 34°34' E 134°48'2121.8
2014-Aug-29 11:33N 34°36' E 135°13'11 9.6
2014-Aug-29 10:28N 34°37' E 135°26'0 0.0
2014-Aug-29 09:28N 34°37' E 135°26'0 0.0
2014-Aug-29 08:28N 34°37' E 135°26'0 0.0
2014-Aug-29 07:28N 34°37' E 135°26'0 0.0
2014-Aug-29 06:28N 34°37' E 135°26'0 0.0
2014-Aug-29 05:28N 34°37' E 135°26'0 0.0
2014-Aug-29 04:28N 34°37' E 135°26'0 0.0
2014-Aug-29 03:28N 34°37' E 135°26'0 0.0
2014-Aug-29 02:28N 34°37' E 135°26'0 0.0
2014-Aug-29 01:28N 34°37' E 135°26'0 0.0
2014-Aug-29 00:28N 34°37' E 135°26'0 0.0
2014-Aug-28 23:32N 34°37' E 135°26'1010.4
2014-Aug-28 22:33N 34°35' E 135°14'1918.7
2014-Aug-28 21:33N 34°34' E 134°51'9618.8
2014-Aug-28 16:25N 34°07' E 132°59'1415.6
2014-Aug-28 15:33N 33°60' E 132°45'2221.1
2014-Aug-28 14:31N 33°46' E 132°25'127 4.9
2014-Aug-27 12:31N 34°33' E 134°47'2122.6
2014-Aug-27 11:33N 34°36' E 135°13'1010.1
2014-Aug-27 10:31N 34°37' E 135°26'0 0.0
2014-Aug-27 09:31N 34°37' E 135°26'0 0.0
2014-Aug-27 08:19N 34°37' E 135°26'0 0.0
2014-Aug-27 07:25N 34°37' E 135°26'0 0.0
2014-Aug-27 06:31N 34°37' E 135°26'0 0.0
2014-Aug-27 05:25N 34°37' E 135°26'0 0.0
2014-Aug-27 04:19N 34°37' E 135°26'0 0.0
2014-Aug-27 03:25N 34°37' E 135°26'0 0.0
2014-Aug-27 02:25N 34°37' E 135°26'0 0.0
2014-Aug-27 01:31N 34°37' E 135°26'0 0.0
2014-Aug-27 00:28N 34°37' E 135°26'0 0.0
2014-Aug-26 23:32N 34°37' E 135°26'9 9.3
2014-Aug-26 22:33N 34°36' E 135°15'1817.5
2014-Aug-26 21:33N 34°35' E 134°54'116 4.3
2014-Aug-25 18:22N 33°57' E 132°41'11118.9
2014-Aug-25 12:29N 34°33' E 134°48'2122.6
2014-Aug-25 11:33N 34°36' E 135°13'11 9.7
2014-Aug-25 10:28N 34°37' E 135°26'0 0.0
2014-Aug-25 09:28N 34°37' E 135°26'0 0.0
2014-Aug-25 08:28N 34°37' E 135°26'0 0.0
2014-Aug-25 07:28N 34°37' E 135°26'0 0.0
2014-Aug-25 06:28N 34°37' E 135°26'0 0.0
2014-Aug-25 05:28N 34°37' E 135°26'0 0.0
2014-Aug-25 04:22N 34°37' E 135°26'0 0.0
2014-Aug-25 03:28N 34°37' E 135°26'0 0.0
2014-Aug-25 02:28N 34°37' E 135°26'0 0.0
2014-Aug-25 01:28N 34°37' E 135°26'0 0.0
2014-Aug-25 00:33N 34°37' E 135°26'0 0.0
2014-Aug-24 23:33N 34°37' E 135°26'1010.1
2014-Aug-24 22:34N 34°35' E 135°14'1717.2
2014-Aug-24 21:33N 34°35' E 134°53'10817.9
2014-Aug-24 15:32N 34°03' E 132°48'2221.8
2014-Aug-24 14:32N 33°48' E 132°29'  

Dump ship's entire track history